ESNN/SDL METAR and TAF weather

Enter ICAO airport designator
Station Type Date Time Source
ESNN METAR 2022/01/18 06:50 UTC NOAA

ESNN 180650Z VRB01KT CAVOK M04/M05 Q1017


Station Type Date Time Source
ESNN Decoded METAR 2022/01/18 06:50 UTC NOAA

Sundsvall-Harnosand Flygplats, Sweden (ESNN) 62-32N 017-27E 10M
Jan 18, 2022 - 01:50 AM EST / 2022.01.18 0650 UTC
Wind: Variable at 1 MPH (1 KT):0
Visibility: greater than 7 mile(s):0
Temperature: 24 F (-4 C)
Dew Point: 23 F (-5 C)
Relative Humidity: 92%
Pressure (altimeter): 30.03 in. Hg (1017 hPa)
ob: ESNN 180650Z VRB01KT CAVOK M04/M05 Q1017
cycle: 7

Station Type Date Time Source
ESNN TAF 2016/05/29 09:33 UTC NOAA

TAF TAF ESNN 290830Z 2909/3018 07006KT 9999 SCT045
BECMG 2913/2915 14010KT

Example: see airport list